createdAt,value
2023-04-01T00:00:32.047Z,1.09
2023-04-01T00:01:32.142Z,1.10
2023-04-01T00:02:32.174Z,1.10
2023-04-01T00:03:32.377Z,1.08
2023-04-01T00:04:32.248Z,1.10
2023-04-01T00:05:32.467Z,1.08
2023-04-01T00:06:32.327Z,1.08
2023-04-01T00:07:32.412Z,1.06
2023-04-01T00:08:32.549Z,1.08
2023-04-01T00:09:32.467Z,1.09
2023-04-01T00:10:32.650Z,1.10
2023-04-01T00:11:32.593Z,1.08
2023-04-01T00:12:32.647Z,1.07
2023-04-01T00:13:32.688Z,1.09
2023-04-01T00:14:32.743Z,1.07
2023-04-01T00:15:32.992Z,1.07
2023-04-01T00:16:32.875Z,1.10
2023-04-01T00:17:32.953Z,1.08
2023-04-01T00:18:32.973Z,1.08
2023-04-01T00:19:32.982Z,1.07
2023-04-01T00:20:33.041Z,1.08
2023-04-01T00:21:33.101Z,1.07
2023-04-01T00:22:33.165Z,1.09
2023-04-01T00:23:33.231Z,1.07
2023-04-01T00:24:33.312Z,1.08
2023-04-01T00:25:33.450Z,1.07
2023-04-01T00:26:33.333Z,1.07
2023-04-01T00:27:33.453Z,1.08
2023-04-01T00:28:33.458Z,1.09
2023-04-01T00:29:33.504Z,1.09
2023-04-01T00:30:33.566Z,1.10
2023-04-01T00:31:33.710Z,1.08
2023-04-01T00:32:33.693Z,1.09
2023-04-01T00:33:33.738Z,1.09
2023-04-01T00:34:33.819Z,1.09
2023-04-01T00:35:34.115Z,1.08
2023-04-01T00:36:33.980Z,1.08
2023-04-01T00:37:33.979Z,1.08
2023-04-01T00:38:34.051Z,1.07
2023-04-01T00:39:34.091Z,1.07
2023-04-01T00:40:34.100Z,1.06
2023-04-01T00:41:34.156Z,1.06
2023-04-01T00:42:34.260Z,1.07
2023-04-01T00:43:34.287Z,1.08
2023-04-01T00:44:34.331Z,1.07
2023-04-01T00:45:34.568Z,1.05
2023-04-01T00:46:35.402Z,1.07
2023-04-01T00:47:34.547Z,1.07
2023-04-01T00:48:34.615Z,1.07
2023-04-01T00:49:34.634Z,1.06
2023-04-01T00:50:34.685Z,1.08
2023-04-01T00:51:34.893Z,1.06
2023-04-01T00:52:34.750Z,1.05
2023-04-01T00:53:34.801Z,1.07
2023-04-01T00:54:34.883Z,1.07
2023-04-01T00:55:34.990Z,1.06
2023-04-01T00:56:35.073Z,1.06
2023-04-01T00:57:35.036Z,1.06
2023-04-01T00:58:35.113Z,1.06
2023-04-01T00:59:35.211Z,1.05
2023-04-01T01:00:35.228Z,1.05
2023-04-01T01:01:35.281Z,1.07
2023-04-01T01:02:35.509Z,1.07
2023-04-01T01:03:35.384Z,1.08
2023-04-01T01:04:35.458Z,1.08
2023-04-01T01:05:48.073Z,1.06
2023-04-01T01:06:36.591Z,1.06
2023-04-01T01:07:35.472Z,1.06
2023-04-01T01:08:35.484Z,1.06
2023-04-01T01:09:35.482Z,1.08
2023-04-01T01:10:35.466Z,1.07
2023-04-01T01:11:42.609Z,1.07
2023-04-01T01:12:36.469Z,1.07
2023-04-01T01:13:35.454Z,1.07
2023-04-01T01:14:35.459Z,1.08
2023-04-01T01:15:35.470Z,1.08
2023-04-01T01:16:35.520Z,1.08
2023-04-01T01:17:35.434Z,1.05
2023-04-01T01:18:35.380Z,1.09
2023-04-01T01:19:35.390Z,1.08
2023-04-01T01:20:35.453Z,1.06
2023-04-01T01:21:35.508Z,1.07
2023-04-01T01:22:35.675Z,1.06
2023-04-01T01:23:36.411Z,1.07
2023-04-01T01:24:35.691Z,1.04
2023-04-01T01:25:35.740Z,1.08
2023-04-01T01:26:36.424Z,1.06
2023-04-01T01:27:35.852Z,1.08
2023-04-01T01:28:35.926Z,1.07
2023-04-01T01:29:36.024Z,1.06
2023-04-01T01:30:36.105Z,1.06
2023-04-01T01:31:36.091Z,1.06
2023-04-01T01:32:36.171Z,1.07
2023-04-01T01:33:36.306Z,1.06
2023-04-01T01:34:36.302Z,1.05
2023-04-01T01:35:36.475Z,1.05
2023-04-01T01:36:36.454Z,1.06
2023-04-01T01:37:36.430Z,1.06
2023-04-01T01:38:36.541Z,1.03
2023-04-01T01:39:36.605Z,1.05
2023-04-01T01:40:36.688Z,1.03
2023-04-01T01:41:36.740Z,1.05
2023-04-01T01:42:36.733Z,1.06
2023-04-01T01:43:36.836Z,1.06
2023-04-01T01:44:36.886Z,1.05
2023-04-01T01:45:36.969Z,1.05
2023-04-01T01:46:37.119Z,1.04
2023-04-01T01:47:37.095Z,1.05
2023-04-01T01:48:37.087Z,1.05
2023-04-01T01:49:37.179Z,1.06
2023-04-01T01:50:37.241Z,1.06
2023-04-01T01:51:37.298Z,1.07
2023-04-01T01:52:37.366Z,1.05
2023-04-01T01:53:37.457Z,1.05
2023-04-01T01:54:37.457Z,1.04
2023-04-01T01:55:37.540Z,1.06
2023-04-01T01:56:37.610Z,1.05
2023-04-01T01:57:37.729Z,1.05
2023-04-01T01:58:37.771Z,1.03
2023-04-01T01:59:37.776Z,1.04
2023-04-01T02:00:37.874Z,1.03
2023-04-01T02:01:37.941Z,1.05
2023-04-01T02:02:37.948Z,1.04
2023-04-01T02:03:38.015Z,1.06
2023-04-01T02:04:38.132Z,1.05
2023-04-01T02:05:38.130Z,1.05
2023-04-01T02:06:38.259Z,1.04
2023-04-01T02:07:38.320Z,1.02
2023-04-01T02:08:38.317Z,1.04
2023-04-01T02:09:38.450Z,1.04
2023-04-01T02:10:38.380Z,1.04
2023-04-01T02:11:38.497Z,1.03
2023-04-01T02:12:38.574Z,1.05
2023-04-01T02:13:38.607Z,1.03
2023-04-01T02:14:38.639Z,1.04
2023-04-01T02:15:38.768Z,1.04
2023-04-01T02:16:38.832Z,1.04
2023-04-01T02:17:38.901Z,1.05
2023-04-01T02:18:38.895Z,1.03
2023-04-01T02:19:38.971Z,1.02
2023-04-01T02:20:38.972Z,1.04
2023-04-01T02:21:39.086Z,1.02
2023-04-01T02:22:39.159Z,1.04
2023-04-01T02:23:39.169Z,1.03
2023-04-01T02:24:39.371Z,1.02
2023-04-01T02:25:39.258Z,1.04
2023-04-01T02:26:39.324Z,1.04
2023-04-01T02:27:39.361Z,1.02
2023-04-01T02:28:39.451Z,1.05
2023-04-01T02:29:39.523Z,1.01
2023-04-01T02:30:39.507Z,1.05
2023-04-01T02:31:39.615Z,1.03
2023-04-01T02:32:39.655Z,1.02
2023-04-01T02:33:39.784Z,1.02
2023-04-01T02:34:39.744Z,1.02
2023-04-01T02:35:39.842Z,1.03
2023-04-01T02:36:39.842Z,1.03
2023-04-01T02:37:40.619Z,1.02
2023-04-01T02:38:39.981Z,1.03
2023-04-01T02:39:40.034Z,1.02
2023-04-01T02:40:40.033Z,1.03
2023-04-01T02:41:40.081Z,1.02
2023-04-01T02:42:40.182Z,1.02
2023-04-01T02:43:40.219Z,1.03
2023-04-01T02:44:40.305Z,1.01
2023-04-01T02:45:40.381Z,1.02
2023-04-01T02:46:40.387Z,1.03
2023-04-01T02:47:40.499Z,1.03
2023-04-01T02:48:40.470Z,1.04
2023-04-01T02:49:40.532Z,1.01
2023-04-01T02:50:40.678Z,1.02
2023-04-01T02:51:40.687Z,1.02
2023-04-01T02:52:40.736Z,1.02
2023-04-01T02:53:40.775Z,1.04
2023-04-01T02:54:40.840Z,1.02
2023-04-01T02:55:40.835Z,1.01
2023-04-01T02:56:40.903Z,1.02
2023-04-01T02:57:40.966Z,1.02
2023-04-01T02:58:41.007Z,1.02
2023-04-01T02:59:41.046Z,1.02
2023-04-01T03:00:41.117Z,1.02
2023-04-01T03:01:41.350Z,1.02
2023-04-01T03:02:41.427Z,1.03
2023-04-01T03:03:41.308Z,1.02
2023-04-01T03:04:41.311Z,1.02
2023-04-01T03:05:41.391Z,1.03
2023-04-01T03:06:41.424Z,1.03
2023-04-01T03:07:41.473Z,1.02
2023-04-01T03:08:41.584Z,1.01
2023-04-01T03:09:41.616Z,1.03
2023-04-01T03:10:41.706Z,1.01
2023-04-01T03:11:41.678Z,1.01
2023-04-01T03:12:41.726Z,1.00
2023-04-01T03:13:41.781Z,0.99
2023-04-01T03:14:41.895Z,1.01
2023-04-01T03:15:41.906Z,1.00
2023-04-01T03:16:41.980Z,1.02
2023-04-01T03:17:42.044Z,1.02
2023-04-01T03:18:42.063Z,1.01
2023-04-01T03:19:42.189Z,1.03
2023-04-01T03:20:42.152Z,1.01
2023-04-01T03:21:42.183Z,1.02
2023-04-01T03:22:43.154Z,1.01
2023-04-01T03:23:42.296Z,0.99
2023-04-01T03:24:42.424Z,1.00
2023-04-01T03:25:42.480Z,1.01
2023-04-01T03:26:42.489Z,1.00
2023-04-01T03:27:42.534Z,1.00
2023-04-01T03:28:42.650Z,1.00
2023-04-01T03:29:42.726Z,1.01
2023-04-01T03:30:42.762Z,1.00
2023-04-01T03:31:42.837Z,1.00
2023-04-01T03:32:42.859Z,1.00
2023-04-01T03:33:42.895Z,1.01
2023-04-01T03:34:42.944Z,0.99
2023-04-01T03:35:42.997Z,1.01
2023-04-01T03:36:43.109Z,1.00
2023-04-01T03:37:43.233Z,0.99
2023-04-01T03:38:43.174Z,0.99
2023-04-01T03:39:44.629Z,0.98
2023-04-01T03:40:43.318Z,1.00
2023-04-01T03:41:43.354Z,0.98
2023-04-01T03:42:43.515Z,0.98
2023-04-01T03:43:43.536Z,0.99
2023-04-01T03:44:43.574Z,0.99
2023-04-01T03:45:43.638Z,0.99
2023-04-01T03:46:43.806Z,0.98
2023-04-01T03:47:43.798Z,1.00
2023-04-01T03:48:43.798Z,0.98
2023-04-01T03:49:43.901Z,0.99
2023-04-01T03:50:43.880Z,0.99
2023-04-01T03:51:43.986Z,0.99
2023-04-01T03:52:44.036Z,0.99
2023-04-01T03:53:44.114Z,1.00
2023-04-01T03:54:44.102Z,0.98
2023-04-01T03:55:44.175Z,0.99
2023-04-01T03:56:44.216Z,0.99
2023-04-01T03:57:44.283Z,0.99
2023-04-01T03:58:44.380Z,0.99
2023-04-01T03:59:44.424Z,0.99
2023-04-01T04:00:44.449Z,0.97
2023-04-01T04:01:44.509Z,0.98
2023-04-01T04:02:44.705Z,0.97
2023-04-01T04:03:44.709Z,0.99
2023-04-01T04:04:44.857Z,0.98
2023-04-01T04:05:44.793Z,0.99
2023-04-01T04:06:44.802Z,1.00
2023-04-01T04:07:44.918Z,0.99
2023-04-01T04:08:44.956Z,0.99
2023-04-01T04:09:44.974Z,0.99
2023-04-01T04:10:45.022Z,0.98
2023-04-01T04:11:45.090Z,0.97
2023-04-01T04:12:45.204Z,0.98
2023-04-01T04:13:45.265Z,0.97
2023-04-01T04:14:45.262Z,0.99
2023-04-01T04:15:45.362Z,0.99
2023-04-01T04:16:45.383Z,0.99
2023-04-01T04:17:45.462Z,0.98
2023-04-01T04:18:45.502Z,0.98
2023-04-01T04:19:45.564Z,0.98
2023-04-01T04:20:45.611Z,0.98
2023-04-01T04:21:45.684Z,0.97
2023-04-01T04:22:45.729Z,0.97
2023-04-01T04:23:45.724Z,0.97
2023-04-01T04:24:45.793Z,0.96
2023-04-01T04:25:45.874Z,0.98
2023-04-01T04:26:45.912Z,0.97
2023-04-01T04:27:46.942Z,0.99
2023-04-01T04:28:46.015Z,0.98
2023-04-01T04:29:46.057Z,0.97
2023-04-01T04:30:46.181Z,0.98
2023-04-01T04:31:46.160Z,0.96
2023-04-01T04:32:46.253Z,0.96
2023-04-01T04:33:46.212Z,0.97
2023-04-01T04:34:46.273Z,0.97
2023-04-01T04:35:46.294Z,0.97
2023-04-01T04:36:46.341Z,0.96
2023-04-01T04:37:46.388Z,0.98
2023-04-01T04:38:46.460Z,0.95
2023-04-01T04:39:46.452Z,0.97
2023-04-01T04:40:46.508Z,0.96
2023-04-01T04:41:46.521Z,0.97
2023-04-01T04:42:46.585Z,0.97
2023-04-01T04:43:46.585Z,0.97
2023-04-01T04:44:46.629Z,0.96
2023-04-01T04:45:46.697Z,0.96
2023-04-01T04:46:46.785Z,0.95
2023-04-01T04:47:46.803Z,0.95
2023-04-01T04:48:46.831Z,0.96
2023-04-01T04:49:46.871Z,0.97
2023-04-01T04:50:46.889Z,0.96
2023-04-01T04:51:46.900Z,0.96
2023-04-01T04:52:46.950Z,0.97
2023-04-01T04:53:47.007Z,0.97
2023-04-01T04:54:47.013Z,0.97
2023-04-01T04:55:47.079Z,0.96
2023-04-01T04:56:47.164Z,0.96
2023-04-01T04:57:47.206Z,0.95
2023-04-01T04:58:47.245Z,0.96
2023-04-01T04:59:47.250Z,0.96
2023-04-01T05:00:47.316Z,0.97
2023-04-01T05:01:47.605Z,0.96
2023-04-01T05:02:47.530Z,0.97
2023-04-01T05:03:47.494Z,0.96
2023-04-01T05:04:47.956Z,0.95
2023-04-01T05:05:47.494Z,0.97
2023-04-01T05:06:47.559Z,0.96
2023-04-01T05:07:47.567Z,0.96
2023-04-01T05:08:47.624Z,0.96
2023-04-01T05:09:47.688Z,0.95
2023-04-01T05:10:47.709Z,0.96
2023-04-01T05:11:47.908Z,0.95
2023-04-01T05:12:47.810Z,0.94
2023-04-01T05:13:47.765Z,0.96
2023-04-01T05:14:47.777Z,0.96
2023-04-01T05:15:47.767Z,0.94
2023-04-01T05:16:47.838Z,0.95
2023-04-01T05:17:47.840Z,0.96
2023-04-01T05:18:47.811Z,0.95
2023-04-01T05:19:47.804Z,0.94
2023-04-01T05:20:47.846Z,0.95
2023-04-01T05:21:47.972Z,0.95
2023-04-01T05:22:47.874Z,0.95
2023-04-01T05:23:47.922Z,0.95
2023-04-01T05:24:48.043Z,0.95
2023-04-01T05:25:47.938Z,0.95
2023-04-01T05:26:47.943Z,0.96
2023-04-01T05:27:48.017Z,0.95
2023-04-01T05:28:48.009Z,0.95
2023-04-01T05:29:48.027Z,0.94
2023-04-01T05:30:48.128Z,0.96
2023-04-01T05:31:48.098Z,0.93
2023-04-01T05:32:48.278Z,0.93
2023-04-01T05:33:48.201Z,0.96
2023-04-01T05:34:48.212Z,0.95
2023-04-01T05:35:48.331Z,0.94
2023-04-01T05:36:48.273Z,0.93
2023-04-01T05:37:48.344Z,0.96
2023-04-01T05:38:48.335Z,0.93
2023-04-01T05:39:48.345Z,0.93
2023-04-01T05:40:48.417Z,0.94
2023-04-01T05:41:48.508Z,0.93
2023-04-01T05:42:48.518Z,0.94
2023-04-01T05:43:48.626Z,0.94
2023-04-01T05:44:48.596Z,0.94
2023-04-01T05:45:48.676Z,0.95
2023-04-01T05:46:48.701Z,0.96
2023-04-01T05:47:48.754Z,0.94
2023-04-01T05:48:48.772Z,0.96
2023-04-01T05:49:48.818Z,0.94
2023-04-01T05:50:48.888Z,0.94
2023-04-01T05:51:48.944Z,0.95
2023-04-01T05:52:48.952Z,0.94
2023-04-01T05:53:49.022Z,0.95
2023-04-01T05:54:49.081Z,0.94
2023-04-01T05:55:49.139Z,0.95
2023-04-01T05:56:49.236Z,0.96
2023-04-01T05:57:49.244Z,0.95
2023-04-01T05:58:49.299Z,0.94
2023-04-01T05:59:49.333Z,0.94
2023-04-01T06:00:56.051Z,0.94
2023-04-01T06:01:50.392Z,0.94
2023-04-01T06:02:49.437Z,0.94
2023-04-01T06:03:49.571Z,0.95
2023-04-01T06:04:49.341Z,0.95
2023-04-01T06:05:49.353Z,0.94
2023-04-01T06:06:49.348Z,0.95
2023-04-01T06:07:49.351Z,0.95
2023-04-01T06:08:49.313Z,0.95
2023-04-01T06:09:49.363Z,0.96
2023-04-01T06:10:49.362Z,0.96
2023-04-01T06:11:49.483Z,0.97
2023-04-01T06:12:49.482Z,0.94
2023-04-01T06:13:49.553Z,0.95
2023-04-01T06:14:49.604Z,0.95
2023-04-01T06:15:49.720Z,0.96
2023-04-01T06:16:49.727Z,0.97
2023-04-01T06:17:49.854Z,0.96
2023-04-01T06:18:49.831Z,0.96
2023-04-01T06:19:49.937Z,0.97
2023-04-01T06:20:49.943Z,0.95
2023-04-01T06:21:50.013Z,0.96
2023-04-01T06:22:50.101Z,0.96
2023-04-01T06:23:50.137Z,0.96
2023-04-01T06:24:50.177Z,0.96
2023-04-01T06:25:50.199Z,0.94
2023-04-01T06:26:50.249Z,0.94
2023-04-01T06:27:50.304Z,0.95
2023-04-01T06:28:50.318Z,0.95
2023-04-01T06:29:50.423Z,0.95
2023-04-01T06:30:50.433Z,0.93
2023-04-01T06:31:51.197Z,0.95
2023-04-01T06:32:50.660Z,0.92
2023-04-01T06:33:50.625Z,0.93
2023-04-01T06:34:50.674Z,0.93
2023-04-01T06:35:50.802Z,0.94
2023-04-01T06:36:50.779Z,0.93
2023-04-01T06:37:50.781Z,0.93
2023-04-01T06:38:50.843Z,0.94
2023-04-01T06:39:50.904Z,0.94
2023-04-01T06:40:51.038Z,0.94
2023-04-01T06:41:51.025Z,0.95
2023-04-01T06:42:51.132Z,0.92
2023-04-01T06:43:51.162Z,0.94
2023-04-01T06:44:51.209Z,0.92
2023-04-01T06:45:52.047Z,0.95
2023-04-01T06:46:51.272Z,0.93
2023-04-01T06:47:51.387Z,0.91
2023-04-01T06:48:51.375Z,0.92
2023-04-01T06:49:51.503Z,0.91
2023-04-01T06:50:51.426Z,0.91
2023-04-01T06:51:51.472Z,0.93
2023-04-01T06:52:51.505Z,0.93
2023-04-01T06:53:51.582Z,0.93
2023-04-01T06:54:51.638Z,0.91
2023-04-01T06:55:51.631Z,0.93
2023-04-01T06:56:51.683Z,0.92
2023-04-01T06:57:51.699Z,0.94
2023-04-01T06:58:51.739Z,0.92
2023-04-01T06:59:51.747Z,0.93
2023-04-01T07:00:52.068Z,0.92
2023-04-01T07:01:51.827Z,0.91
2023-04-01T07:02:51.802Z,0.92
2023-04-01T07:03:51.782Z,0.93
2023-04-01T07:04:51.859Z,0.92
2023-04-01T07:05:51.910Z,0.91
2023-04-01T07:06:54.561Z,0.93
2023-04-01T07:07:51.967Z,0.94
2023-04-01T07:08:51.911Z,0.92
2023-04-01T07:09:51.995Z,0.93
2023-04-01T07:10:51.926Z,0.91
2023-04-01T07:11:51.995Z,0.92
2023-04-01T07:12:51.907Z,0.92
2023-04-01T07:13:51.922Z,0.91
2023-04-01T07:14:51.946Z,0.90
2023-04-01T07:15:51.915Z,0.89
2023-04-01T07:16:51.925Z,0.91
2023-04-01T07:17:51.927Z,0.91
2023-04-01T07:18:51.887Z,0.91
2023-04-01T07:19:51.880Z,0.90
2023-04-01T07:20:51.896Z,0.91
2023-04-01T07:21:51.894Z,0.91
2023-04-01T07:22:51.899Z,0.91
2023-04-01T07:23:51.879Z,0.91
2023-04-01T07:24:51.850Z,0.90
2023-04-01T07:25:51.809Z,0.90
2023-04-01T07:26:51.817Z,0.90
2023-04-01T07:27:51.827Z,0.91
2023-04-01T07:28:51.819Z,0.92
2023-04-01T07:29:51.761Z,0.89
2023-04-01T07:30:51.878Z,0.92
2023-04-01T07:31:51.869Z,0.91
2023-04-01T07:32:51.897Z,0.91
2023-04-01T07:33:51.833Z,0.92
2023-04-01T07:34:51.781Z,0.92
2023-04-01T07:35:51.910Z,0.91
2023-04-01T07:36:51.746Z,0.92
2023-04-01T07:37:51.728Z,0.90
2023-04-01T07:38:51.775Z,0.91
2023-04-01T07:39:51.718Z,0.91
2023-04-01T07:40:51.722Z,0.91
2023-04-01T07:41:51.735Z,0.89
2023-04-01T07:42:51.735Z,0.89
2023-04-01T07:43:51.740Z,0.90
2023-04-01T07:44:51.646Z,0.92
2023-04-01T07:45:51.816Z,0.90
2023-04-01T07:46:51.729Z,0.92
2023-04-01T07:47:51.807Z,0.92
2023-04-01T07:48:51.676Z,0.90
2023-04-01T07:49:51.674Z,0.90
2023-04-01T07:50:53.137Z,0.90
2023-04-01T07:51:51.692Z,0.89
2023-04-01T07:52:51.699Z,0.90
2023-04-01T07:53:51.676Z,0.90
2023-04-01T07:54:51.702Z,0.88
2023-04-01T07:55:51.628Z,0.91
2023-04-01T07:56:51.715Z,0.90
2023-04-01T07:57:51.805Z,0.92
2023-04-01T07:58:51.845Z,0.89
2023-04-01T07:59:51.872Z,0.91
2023-04-01T08:00:52.582Z,0.91
2023-04-01T08:01:51.970Z,0.90
2023-04-01T08:02:52.172Z,0.90
2023-04-01T08:03:52.259Z,0.91
2023-04-01T08:04:52.136Z,0.89
2023-04-01T08:05:52.173Z,0.89
2023-04-01T08:06:52.258Z,0.89
2023-04-01T08:07:52.272Z,0.90
2023-04-01T08:08:52.416Z,0.90
2023-04-01T08:09:52.336Z,0.91
2023-04-01T08:10:52.437Z,0.89
2023-04-01T08:11:52.518Z,0.90
2023-04-01T08:12:52.456Z,0.90
2023-04-01T08:13:52.563Z,0.90
2023-04-01T08:14:52.532Z,0.90
2023-04-01T08:15:52.660Z,0.91
2023-04-01T08:16:54.455Z,0.92
2023-04-01T08:17:52.620Z,0.92
2023-04-01T08:18:52.688Z,0.93
2023-04-01T08:19:52.598Z,0.92
2023-04-01T08:20:52.616Z,0.94
2023-04-01T08:21:52.703Z,0.94
2023-04-01T08:22:52.619Z,0.91
2023-04-01T08:23:52.731Z,0.93
2023-04-01T08:24:52.719Z,0.93
2023-04-01T08:25:52.743Z,0.90
2023-04-01T08:26:52.768Z,0.89
2023-04-01T08:27:52.849Z,0.87
2023-04-01T08:28:52.876Z,0.91
2023-04-01T08:29:52.962Z,0.89
2023-04-01T08:30:52.992Z,0.87
2023-04-01T08:31:53.083Z,0.91
2023-04-01T08:32:53.210Z,0.91
2023-04-01T08:33:53.161Z,0.91
2023-04-01T08:34:53.219Z,0.90
2023-04-01T08:35:53.233Z,0.89
2023-04-01T08:36:53.281Z,0.90
2023-04-01T08:37:53.377Z,0.87
2023-04-01T08:38:53.359Z,0.89
2023-04-01T08:39:53.343Z,0.89
2023-04-01T08:40:53.419Z,0.90
2023-04-01T08:41:53.416Z,0.91
2023-04-01T08:42:53.425Z,0.89
2023-04-01T08:43:53.471Z,0.89
2023-04-01T08:44:53.466Z,0.90
2023-04-01T08:45:53.525Z,0.89
2023-04-01T08:46:53.489Z,0.91
2023-04-01T08:47:53.567Z,0.89
2023-04-01T08:48:53.458Z,0.92
2023-04-01T08:49:53.529Z,0.90
2023-04-01T08:50:53.457Z,0.92
2023-04-01T08:51:53.628Z,0.91
2023-04-01T08:52:53.606Z,0.93
2023-04-01T08:53:53.652Z,0.90
2023-04-01T08:54:53.652Z,0.91
2023-04-01T08:55:53.764Z,0.91
2023-04-01T08:56:53.825Z,0.91
2023-04-01T08:57:54.707Z,0.91
2023-04-01T08:58:53.888Z,0.89
2023-04-01T08:59:53.967Z,0.91
2023-04-01T09:00:54.118Z,0.90
2023-04-01T09:01:54.138Z,0.91
2023-04-01T09:02:54.289Z,0.90
2023-04-01T09:03:54.271Z,0.88
2023-04-01T09:04:54.237Z,0.89
2023-04-01T09:05:54.335Z,0.89
2023-04-01T09:06:54.346Z,0.90
2023-04-01T09:07:54.353Z,0.90
2023-04-01T09:08:54.407Z,0.91
2023-04-01T09:09:54.442Z,0.89
2023-04-01T09:10:54.481Z,0.90
2023-04-01T09:11:54.636Z,0.90
2023-04-01T09:12:54.555Z,0.89
2023-04-01T09:13:54.608Z,0.91
2023-04-01T09:14:54.623Z,0.90
2023-04-01T09:15:54.677Z,0.92
2023-04-01T09:16:54.638Z,0.89
2023-04-01T09:17:54.764Z,0.90
2023-04-01T09:18:54.726Z,0.90
2023-04-01T09:19:54.746Z,0.89
2023-04-01T09:20:54.704Z,0.90
2023-04-01T09:21:54.751Z,0.91
2023-04-01T09:22:54.760Z,0.90
2023-04-01T09:23:54.870Z,0.89
2023-04-01T09:24:54.895Z,0.90
2023-04-01T09:25:55.056Z,0.91
2023-04-01T09:26:55.014Z,0.87
2023-04-01T09:27:55.067Z,0.89
2023-04-01T09:28:55.013Z,0.91
2023-04-01T09:29:55.021Z,0.90
2023-04-01T09:30:55.064Z,0.89
2023-04-01T09:31:55.031Z,0.89
2023-04-01T09:32:55.016Z,0.88
2023-04-01T09:33:55.055Z,0.90
2023-04-01T09:34:55.074Z,0.88
2023-04-01T09:35:55.072Z,0.88
2023-04-01T09:36:55.149Z,0.88
2023-04-01T09:37:55.191Z,0.87
2023-04-01T09:38:55.262Z,0.86
2023-04-01T09:39:55.291Z,0.87
2023-04-01T09:40:55.256Z,0.88
2023-04-01T09:41:55.310Z,0.86
2023-04-01T09:42:55.489Z,0.89
2023-04-01T09:43:55.339Z,0.89
2023-04-01T09:44:55.380Z,0.88
2023-04-01T09:45:55.451Z,0.87
2023-04-01T09:46:55.436Z,0.87
2023-04-01T09:47:55.506Z,0.87
2023-04-01T09:48:55.574Z,0.88
2023-04-01T09:49:55.671Z,0.88
2023-04-01T09:50:55.689Z,0.90
2023-04-01T09:51:55.732Z,0.88
2023-04-01T09:52:55.790Z,0.89
2023-04-01T09:53:55.845Z,0.87
2023-04-01T09:54:55.954Z,0.88
2023-04-01T09:55:56.009Z,0.88
2023-04-01T09:56:56.083Z,0.89
2023-04-01T09:57:56.038Z,0.89
2023-04-01T09:58:56.094Z,0.86
2023-04-01T09:59:56.155Z,0.86
2023-04-01T10:00:56.219Z,0.86
2023-04-01T10:02:56.431Z,0.87
2023-04-01T10:03:56.382Z,0.85
2023-04-01T10:04:56.463Z,0.87
2023-04-01T10:05:56.557Z,0.85
2023-04-01T10:06:56.506Z,0.86
2023-04-01T10:07:56.561Z,0.85
2023-04-01T10:08:56.624Z,0.84
2023-04-01T10:09:56.718Z,0.84
2023-04-01T10:10:56.675Z,0.84
2023-04-01T10:11:56.731Z,0.83
2023-04-01T10:12:56.780Z,0.84
2023-04-01T10:13:56.798Z,0.84
2023-04-01T10:14:56.882Z,0.84
2023-04-01T10:15:56.948Z,0.85
2023-04-01T10:18:23.429Z,0.50
2023-04-01T10:19:15.958Z,0.50
2023-04-01T10:20:15.863Z,0.50
2023-04-01T10:21:15.916Z,0.50
2023-04-01T10:22:15.904Z,0.50
2023-04-01T10:23:15.865Z,0.50
2023-04-01T10:24:15.852Z,0.50
2023-04-01T10:25:15.868Z,0.50
2023-04-01T10:26:15.817Z,0.51
2023-04-01T10:27:15.884Z,0.51
2023-04-01T10:28:15.811Z,0.51
2023-04-01T10:29:15.818Z,0.51
2023-04-01T10:30:15.794Z,0.51
2023-04-01T10:31:15.800Z,0.51
2023-04-01T10:32:15.885Z,0.50
2023-04-01T10:33:15.746Z,0.50
2023-04-01T10:34:15.790Z,0.51
2023-04-01T10:35:15.777Z,0.51
2023-04-01T10:36:15.799Z,0.50
2023-04-01T10:37:15.842Z,0.51
2023-04-01T10:38:15.881Z,0.50
2023-04-01T10:39:15.898Z,0.51
2023-04-01T10:40:15.974Z,0.51
2023-04-01T10:41:15.964Z,0.51
2023-04-01T10:42:16.012Z,0.51
2023-04-01T10:43:16.012Z,0.51
2023-04-01T10:44:16.045Z,0.51
2023-04-01T10:45:16.122Z,0.52
2023-04-01T10:46:17.091Z,0.51
2023-04-01T10:47:16.172Z,0.52
2023-04-01T10:48:16.236Z,0.52
2023-04-01T10:49:16.218Z,0.52
2023-04-01T10:50:16.282Z,0.52
2023-04-01T10:51:16.359Z,0.51
2023-04-01T10:52:16.283Z,0.52
2023-04-01T10:53:16.416Z,0.51
2023-04-01T10:54:16.380Z,0.52
2023-04-01T10:55:16.380Z,0.51
2023-04-01T10:56:16.507Z,0.51
2023-04-01T10:57:16.478Z,0.51
2023-04-01T10:58:16.462Z,0.51
2023-04-01T10:59:16.566Z,0.51
2023-04-01T11:00:16.502Z,0.51
2023-04-01T11:01:16.583Z,0.51
2023-04-01T11:02:16.643Z,0.51
2023-04-01T11:03:16.585Z,0.50
2023-04-01T11:04:16.628Z,0.51
2023-04-01T11:05:17.669Z,0.51
2023-04-01T11:06:16.690Z,0.52
2023-04-01T11:07:16.656Z,0.52
2023-04-01T11:08:16.605Z,0.51
2023-04-01T11:09:16.618Z,0.50
2023-04-01T11:10:16.574Z,0.51
2023-04-01T11:11:16.621Z,0.50
2023-04-01T11:12:16.613Z,0.52
2023-04-01T11:13:16.595Z,0.53
2023-04-01T11:14:16.652Z,0.52
2023-04-01T11:15:16.544Z,0.52
2023-04-01T11:16:17.739Z,0.51
2023-04-01T11:17:16.561Z,0.53
2023-04-01T11:18:16.566Z,0.52
2023-04-01T11:19:16.580Z,0.52
2023-04-01T11:20:16.544Z,0.52
2023-04-01T11:21:16.557Z,0.54
2023-04-01T11:22:16.560Z,0.54
2023-04-01T11:23:16.654Z,0.54
2023-04-01T11:24:16.564Z,0.54
2023-04-01T11:25:16.511Z,0.54
2023-04-01T11:26:16.530Z,0.53
2023-04-01T11:27:16.717Z,0.53
2023-04-01T11:28:16.599Z,0.54
2023-04-01T11:29:16.544Z,0.54
2023-04-01T11:30:16.508Z,0.53
2023-04-01T11:31:16.465Z,0.54
2023-04-01T11:32:16.522Z,0.53
2023-04-01T11:33:17.391Z,0.54
2023-04-01T11:34:16.599Z,0.55
2023-04-01T11:35:16.545Z,0.53
2023-04-01T11:36:16.426Z,0.54
2023-04-01T11:37:16.478Z,0.53
2023-04-01T11:38:16.556Z,0.53
2023-04-01T11:39:16.498Z,0.52
2023-04-01T11:40:16.565Z,0.54
2023-04-01T11:41:16.743Z,0.53
2023-04-01T11:42:16.581Z,0.54
2023-04-01T11:43:26.319Z,0.53
2023-04-01T11:44:17.635Z,0.54
2023-04-01T11:45:16.598Z,0.53
2023-04-01T11:46:16.695Z,0.53
2023-04-01T11:47:16.623Z,0.53
2023-04-01T11:48:16.635Z,0.54
2023-04-01T11:49:16.578Z,0.53
2023-04-01T11:50:16.633Z,0.54
2023-04-01T11:51:16.756Z,0.53
2023-04-01T11:52:16.799Z,0.52
2023-04-01T11:53:16.790Z,0.52
2023-04-01T11:54:16.874Z,0.51
2023-04-01T11:55:16.946Z,0.51
2023-04-01T11:56:17.000Z,0.52
2023-04-01T11:57:17.046Z,0.52
2023-04-01T11:58:17.068Z,0.53
2023-04-01T11:59:17.154Z,0.53
2023-04-01T12:00:17.231Z,0.52
2023-04-01T12:01:17.270Z,0.52
2023-04-01T12:02:18.677Z,0.50
2023-04-01T12:03:17.613Z,0.52
2023-04-01T12:04:17.428Z,0.52
2023-04-01T12:05:17.297Z,0.50
2023-04-01T12:06:17.329Z,0.53
2023-04-01T12:07:17.293Z,0.53
2023-04-01T12:08:17.310Z,0.51
2023-04-01T12:09:17.242Z,0.50
2023-04-01T12:10:17.296Z,0.53
2023-04-01T12:11:17.328Z,0.53
2023-04-01T12:12:17.240Z,0.52
2023-04-01T12:13:17.267Z,0.52
2023-04-01T12:14:17.241Z,0.51
2023-04-01T12:15:17.323Z,0.50
2023-04-01T12:16:17.258Z,0.52
2023-04-01T12:17:17.285Z,0.51
2023-04-01T12:18:17.202Z,0.50
2023-04-01T12:19:17.220Z,0.52
2023-04-01T12:20:17.296Z,0.53
2023-04-01T12:21:17.190Z,0.52
2023-04-01T12:22:17.179Z,0.53
2023-04-01T12:23:17.182Z,0.51
2023-04-01T12:24:17.223Z,0.52
2023-04-01T12:25:17.255Z,0.53
2023-04-01T12:26:17.190Z,0.52
2023-04-01T12:27:17.149Z,0.52
2023-04-01T12:28:17.247Z,0.51
2023-04-01T12:29:17.223Z,0.51
2023-04-01T12:30:17.123Z,0.53
2023-04-01T12:31:17.158Z,0.52
2023-04-01T12:32:17.220Z,0.51
2023-04-01T12:33:17.150Z,0.51
2023-04-01T12:34:17.165Z,0.51
2023-04-01T12:35:17.100Z,0.50
2023-04-01T12:36:17.171Z,0.52
2023-04-01T12:37:17.129Z,0.53
2023-04-01T12:38:17.629Z,0.53
2023-04-01T12:39:17.118Z,0.54
2023-04-01T12:40:17.086Z,0.53
2023-04-01T12:41:17.049Z,0.53
2023-04-01T12:42:17.034Z,0.52
2023-04-01T12:43:17.095Z,0.53
2023-04-01T12:44:17.043Z,0.53
2023-04-01T12:45:17.080Z,0.52
2023-04-01T12:46:17.099Z,0.52
2023-04-01T12:47:17.065Z,0.52
2023-04-01T12:48:17.001Z,0.51
2023-04-01T12:49:17.072Z,0.51
2023-04-01T12:50:17.016Z,0.51
2023-04-01T12:51:17.013Z,0.51
2023-04-01T12:52:16.991Z,0.50
2023-04-01T12:53:17.000Z,0.50
2023-04-01T12:54:16.996Z,0.50
2023-04-01T12:55:17.099Z,0.51
2023-04-01T12:56:17.407Z,0.51
2023-04-01T12:57:17.039Z,0.52
2023-04-01T12:58:17.027Z,0.52
2023-04-01T12:59:16.969Z,0.52
2023-04-01T13:00:16.965Z,0.50
2023-04-01T13:01:17.047Z,0.50
2023-04-01T13:02:16.974Z,0.51
2023-04-01T13:03:16.907Z,0.51
2023-04-01T13:04:16.976Z,0.52
2023-04-01T13:05:16.949Z,0.50
2023-04-01T13:06:19.083Z,0.52
2023-04-01T13:07:16.998Z,0.53
2023-04-01T13:08:16.990Z,0.52
2023-04-01T13:09:16.980Z,0.51
2023-04-01T13:10:17.001Z,0.51
2023-04-01T13:11:16.991Z,0.50
2023-04-01T13:12:17.058Z,0.51
2023-04-01T13:13:16.996Z,0.50
2023-04-01T13:14:30.723Z,0.51
2023-04-01T13:15:17.929Z,0.51
2023-04-01T13:16:17.011Z,0.51
2023-04-01T13:17:16.930Z,0.51
2023-04-01T13:18:16.868Z,0.50
2023-04-01T13:19:16.938Z,0.49
2023-04-01T13:20:16.898Z,0.51
2023-04-01T13:21:16.896Z,0.51